sensor_id;sensor_type;location;lat;lon;timestamp;pressure;altitude;pressure_sealevel;temperature;humidity
54854;BME280;40747;49.480;8.658;2023-04-07T00:01:48;100345.00;;;7.88;95.90
54854;BME280;40747;49.480;8.658;2023-04-07T00:04:14;100332.91;;;7.80;94.55
54854;BME280;40747;49.480;8.658;2023-04-07T00:06:39;100338.69;;;7.97;94.14
54854;BME280;40747;49.480;8.658;2023-04-07T00:09:05;100348.34;;;7.95;95.06
54854;BME280;40747;49.480;8.658;2023-04-07T00:11:30;100343.28;;;7.86;95.19
54854;BME280;40747;49.480;8.658;2023-04-07T00:13:56;100325.66;;;7.93;95.40
54854;BME280;40747;49.480;8.658;2023-04-07T00:16:22;100344.03;;;7.94;94.45
54854;BME280;40747;49.480;8.658;2023-04-07T00:18:47;100329.06;;;7.99;94.24
54854;BME280;40747;49.480;8.658;2023-04-07T00:21:13;100331.69;;;7.98;94.52
54854;BME280;40747;49.480;8.658;2023-04-07T00:23:38;100323.94;;;7.93;94.19
54854;BME280;40747;49.480;8.658;2023-04-07T00:26:03;100323.34;;;7.79;95.11
54854;BME280;40747;49.480;8.658;2023-04-07T00:28:28;100313.63;;;7.82;94.83
54854;BME280;40747;49.480;8.658;2023-04-07T00:30:54;100309.28;;;7.83;94.08
54854;BME280;40747;49.480;8.658;2023-04-07T00:33:19;100309.19;;;7.86;94.05
54854;BME280;40747;49.480;8.658;2023-04-07T00:35:45;100307.34;;;7.91;95.34
54854;BME280;40747;49.480;8.658;2023-04-07T00:38:10;100298.50;;;7.95;94.56
54854;BME280;40747;49.480;8.658;2023-04-07T00:40:35;100286.69;;;7.76;93.83
54854;BME280;40747;49.480;8.658;2023-04-07T00:43:01;100293.31;;;7.94;94.48
54854;BME280;40747;49.480;8.658;2023-04-07T00:45:26;100305.66;;;7.88;95.56
54854;BME280;40747;49.480;8.658;2023-04-07T00:47:51;100297.13;;;7.79;94.87
54854;BME280;40747;49.480;8.658;2023-04-07T00:50:17;100279.78;;;7.71;94.66
54854;BME280;40747;49.480;8.658;2023-04-07T00:52:43;100285.81;;;7.75;96.10
54854;BME280;40747;49.480;8.658;2023-04-07T00:55:09;100290.84;;;7.86;95.70
54854;BME280;40747;49.480;8.658;2023-04-07T00:57:34;100271.00;;;7.73;95.84
54854;BME280;40747;49.480;8.658;2023-04-07T00:59:59;100281.66;;;7.63;96.67
54854;BME280;40747;49.480;8.658;2023-04-07T01:02:52;100277.13;;;7.73;96.45
54854;BME280;40747;49.480;8.658;2023-04-07T01:05:30;100274.56;;;7.68;96.26
54854;BME280;40747;49.480;8.658;2023-04-07T01:10:51;100264.19;;;7.64;95.98
54854;BME280;40747;49.480;8.658;2023-04-07T01:13:35;100257.09;;;7.69;96.53
54854;BME280;40747;49.480;8.658;2023-04-07T01:16:04;100254.47;;;7.69;96.32
54854;BME280;40747;49.480;8.658;2023-04-07T01:18:35;100224.88;;;7.64;95.96
54854;BME280;40747;49.480;8.658;2023-04-07T01:21:05;100251.59;;;7.83;95.85
54854;BME280;40747;49.480;8.658;2023-04-07T01:24:04;100257.00;;;7.74;95.65
54854;BME280;40747;49.480;8.658;2023-04-07T01:26:36;100241.13;;;7.80;96.98
54854;BME280;40747;49.480;8.658;2023-04-07T01:31:47;100243.00;;;7.75;96.32
54854;BME280;40747;49.480;8.658;2023-04-07T01:34:14;100238.91;;;7.61;96.98
54854;BME280;40747;49.480;8.658;2023-04-07T01:36:42;100241.59;;;7.57;97.00
54854;BME280;40747;49.480;8.658;2023-04-07T01:39:08;100240.56;;;7.65;94.88
54854;BME280;40747;49.480;8.658;2023-04-07T01:41:34;100232.81;;;7.59;95.54
54854;BME280;40747;49.480;8.658;2023-04-07T01:44:00;100231.69;;;7.73;95.50
54854;BME280;40747;49.480;8.658;2023-04-07T01:46:26;100239.59;;;7.69;96.63
54854;BME280;40747;49.480;8.658;2023-04-07T01:48:51;100240.41;;;7.73;97.50
54854;BME280;40747;49.480;8.658;2023-04-07T01:51:19;100239.91;;;7.54;97.27
54854;BME280;40747;49.480;8.658;2023-04-07T01:53:46;100246.06;;;7.51;98.55
54854;BME280;40747;49.480;8.658;2023-04-07T01:56:12;100238.16;;;7.53;99.43
54854;BME280;40747;49.480;8.658;2023-04-07T01:58:37;100232.03;;;7.54;98.56
54854;BME280;40747;49.480;8.658;2023-04-07T02:01:03;100239.97;;;7.51;99.43
54854;BME280;40747;49.480;8.658;2023-04-07T02:03:42;100220.84;;;7.46;99.92
54854;BME280;40747;49.480;8.658;2023-04-07T02:06:12;100228.72;;;7.44;100.00
54854;BME280;40747;49.480;8.658;2023-04-07T02:08:46;100234.88;;;7.43;99.82
54854;BME280;40747;49.480;8.658;2023-04-07T02:11:14;100226.41;;;7.30;100.00
54854;BME280;40747;49.480;8.658;2023-04-07T02:13:42;100226.25;;;7.36;100.00
54854;BME280;40747;49.480;8.658;2023-04-07T02:16:09;100224.63;;;7.31;100.00
54854;BME280;40747;49.480;8.658;2023-04-07T02:18:35;100236.72;;;7.38;99.75
54854;BME280;40747;49.480;8.658;2023-04-07T02:21:03;100216.66;;;7.37;99.99
54854;BME280;40747;49.480;8.658;2023-04-07T02:23:30;100224.25;;;7.51;99.54
54854;BME280;40747;49.480;8.658;2023-04-07T02:25:58;100218.03;;;7.55;98.76
54854;BME280;40747;49.480;8.658;2023-04-07T02:28:23;100227.75;;;7.50;97.82
54854;BME280;40747;49.480;8.658;2023-04-07T02:30:48;100220.75;;;7.50;96.84
54854;BME280;40747;49.480;8.658;2023-04-07T02:33:13;100215.69;;;7.41;97.49
54854;BME280;40747;49.480;8.658;2023-04-07T02:35:39;100217.44;;;7.42;98.14
54854;BME280;40747;49.480;8.658;2023-04-07T02:38:05;100216.47;;;7.46;98.45
54854;BME280;40747;49.480;8.658;2023-04-07T02:40:30;100216.44;;;7.48;97.98
54854;BME280;40747;49.480;8.658;2023-04-07T02:42:55;100210.22;;;7.53;98.07
54854;BME280;40747;49.480;8.658;2023-04-07T02:45:21;100203.25;;;7.52;98.61
54854;BME280;40747;49.480;8.658;2023-04-07T02:47:46;100205.94;;;7.49;98.45
54854;BME280;40747;49.480;8.658;2023-04-07T02:50:11;100196.28;;;7.51;97.80
54854;BME280;40747;49.480;8.658;2023-04-07T02:52:36;100208.53;;;7.51;97.53
54854;BME280;40747;49.480;8.658;2023-04-07T02:55:02;100205.91;;;7.51;98.39
54854;BME280;40747;49.480;8.658;2023-04-07T02:57:27;100214.47;;;7.59;98.12
54854;BME280;40747;49.480;8.658;2023-04-07T02:59:53;100195.88;;;7.71;98.09
54854;BME280;40747;49.480;8.658;2023-04-07T03:02:20;100199.25;;;7.77;96.90
54854;BME280;40747;49.480;8.658;2023-04-07T03:04:45;100201.94;;;7.74;97.66
54854;BME280;40747;49.480;8.658;2023-04-07T03:07:10;100198.38;;;7.78;97.15
54854;BME280;40747;49.480;8.658;2023-04-07T03:09:35;100201.84;;;7.78;98.37
54854;BME280;40747;49.480;8.658;2023-04-07T03:12:01;100204.16;;;7.92;97.13
54854;BME280;40747;49.480;8.658;2023-04-07T03:14:26;100190.28;;;7.87;95.51
54854;BME280;40747;49.480;8.658;2023-04-07T03:16:52;100198.09;;;7.90;94.63
54854;BME280;40747;49.480;8.658;2023-04-07T03:19:17;100196.44;;;7.86;94.24
54854;BME280;40747;49.480;8.658;2023-04-07T03:21:42;100183.63;;;7.72;95.03
54854;BME280;40747;49.480;8.658;2023-04-07T03:24:08;100195.66;;;7.81;96.31
54854;BME280;40747;49.480;8.658;2023-04-07T03:26:33;100191.03;;;7.94;96.26
54854;BME280;40747;49.480;8.658;2023-04-07T03:28:59;100174.06;;;7.69;96.29
54854;BME280;40747;49.480;8.658;2023-04-07T03:31:24;100187.06;;;7.74;98.33
54854;BME280;40747;49.480;8.658;2023-04-07T03:33:50;100197.75;;;7.65;97.97
54854;BME280;40747;49.480;8.658;2023-04-07T03:36:15;100195.34;;;7.54;98.60
54854;BME280;40747;49.480;8.658;2023-04-07T03:38:42;100185.88;;;7.48;99.83
54854;BME280;40747;49.480;8.658;2023-04-07T03:41:08;100189.28;;;7.52;99.48
54854;BME280;40747;49.480;8.658;2023-04-07T03:43:33;100178.81;;;7.52;99.17
54854;BME280;40747;49.480;8.658;2023-04-07T03:45:58;100184.03;;;7.52;98.91
54854;BME280;40747;49.480;8.658;2023-04-07T03:48:24;100165.63;;;7.55;98.54
54854;BME280;40747;49.480;8.658;2023-04-07T03:50:49;100177.81;;;7.58;98.04
54854;BME280;40747;49.480;8.658;2023-04-07T03:53:14;100185.91;;;7.47;98.56
54854;BME280;40747;49.480;8.658;2023-04-07T03:55:41;100182.59;;;7.37;99.38
54854;BME280;40747;49.480;8.658;2023-04-07T03:58:07;100165.69;;;7.52;99.10
54854;BME280;40747;49.480;8.658;2023-04-07T04:00:32;100172.47;;;7.62;97.43
54854;BME280;40747;49.480;8.658;2023-04-07T04:02:58;100174.28;;;7.59;97.54
54854;BME280;40747;49.480;8.658;2023-04-07T04:05:24;100169.97;;;7.56;97.99
54854;BME280;40747;49.480;8.658;2023-04-07T04:07:49;100181.78;;;7.76;98.42
54854;BME280;40747;49.480;8.658;2023-04-07T04:10:17;100180.41;;;7.58;97.72
54854;BME280;40747;49.480;8.658;2023-04-07T04:12:42;100176.31;;;7.46;97.46
54854;BME280;40747;49.480;8.658;2023-04-07T04:15:08;100180.53;;;7.51;98.58
54854;BME280;40747;49.480;8.658;2023-04-07T04:17:33;100194.47;;;7.55;98.73
54854;BME280;40747;49.480;8.658;2023-04-07T04:19:59;100197.94;;;7.55;98.41
54854;BME280;40747;49.480;8.658;2023-04-07T04:22:24;100184.03;;;7.52;98.44
54854;BME280;40747;49.480;8.658;2023-04-07T04:24:49;100187.59;;;7.49;98.49
54854;BME280;40747;49.480;8.658;2023-04-07T04:27:15;100193.59;;;7.53;99.06
54854;BME280;40747;49.480;8.658;2023-04-07T04:29:40;100196.44;;;7.44;99.51
54854;BME280;40747;49.480;8.658;2023-04-07T04:32:05;100199.88;;;7.46;99.36
54854;BME280;40747;49.480;8.658;2023-04-07T04:34:31;100175.56;;;7.37;99.15
54854;BME280;40747;49.480;8.658;2023-04-07T04:36:56;100195.53;;;7.45;98.88
54854;BME280;40747;49.480;8.658;2023-04-07T04:39:21;100198.03;;;7.51;99.65
54854;BME280;40747;49.480;8.658;2023-04-07T04:41:46;100197.13;;;7.53;98.77
54854;BME280;40747;49.480;8.658;2023-04-07T04:44:12;100198.09;;;7.48;98.85
54854;BME280;40747;49.480;8.658;2023-04-07T04:46:37;100197.97;;;7.54;99.06
54854;BME280;40747;49.480;8.658;2023-04-07T04:49:02;100189.19;;;7.57;98.69
54854;BME280;40747;49.480;8.658;2023-04-07T04:51:28;100194.13;;;7.70;98.54
54854;BME280;40747;49.480;8.658;2023-04-07T04:53:53;100195.91;;;7.68;98.40
54854;BME280;40747;49.480;8.658;2023-04-07T04:56:19;100199.59;;;7.61;97.83
54854;BME280;40747;49.480;8.658;2023-04-07T04:58:45;100203.09;;;7.60;98.75
54854;BME280;40747;49.480;8.658;2023-04-07T05:01:11;100200.38;;;7.65;99.24
54854;BME280;40747;49.480;8.658;2023-04-07T05:03:37;100198.69;;;7.62;98.69
54854;BME280;40747;49.480;8.658;2023-04-07T05:06:02;100193.81;;;7.44;99.28
54854;BME280;40747;49.480;8.658;2023-04-07T05:08:28;100203.41;;;7.45;100.00
54854;BME280;40747;49.480;8.658;2023-04-07T05:10:53;100201.66;;;7.44;100.00
54854;BME280;40747;49.480;8.658;2023-04-07T05:13:19;100200.56;;;7.55;100.00
54854;BME280;40747;49.480;8.658;2023-04-07T05:15:45;100195.25;;;7.59;99.34
54854;BME280;40747;49.480;8.658;2023-04-07T05:18:10;100200.09;;;7.77;99.19
54854;BME280;40747;49.480;8.658;2023-04-07T05:20:35;100200.78;;;7.87;98.27
54854;BME280;40747;49.480;8.658;2023-04-07T05:23:00;100199.00;;;7.89;97.93
54854;BME280;40747;49.480;8.658;2023-04-07T05:25:26;100188.22;;;8.01;97.79
54854;BME280;40747;49.480;8.658;2023-04-07T05:27:51;100194.44;;;7.97;97.41
54854;BME280;40747;49.480;8.658;2023-04-07T05:30:16;100187.41;;;7.98;97.62
54854;BME280;40747;49.480;8.658;2023-04-07T05:32:42;100196.19;;;7.98;97.50
54854;BME280;40747;49.480;8.658;2023-04-07T05:35:07;100172.69;;;7.92;96.55
54854;BME280;40747;49.480;8.658;2023-04-07T05:37:33;100186.69;;;7.91;97.79
54854;BME280;40747;49.480;8.658;2023-04-07T05:39:58;100187.41;;;7.98;97.77
54854;BME280;40747;49.480;8.658;2023-04-07T05:42:23;100188.59;;;7.84;97.54
54854;BME280;40747;49.480;8.658;2023-04-07T05:44:49;100194.44;;;7.97;98.19
54854;BME280;40747;49.480;8.658;2023-04-07T05:47:14;100199.69;;;7.97;97.69
54854;BME280;40747;49.480;8.658;2023-04-07T05:49:40;100205.81;;;7.96;98.23
54854;BME280;40747;49.480;8.658;2023-04-07T05:52:11;100199.78;;;7.93;98.40
54854;BME280;40747;49.480;8.658;2023-04-07T05:54:36;100202.38;;;7.94;98.60
54854;BME280;40747;49.480;8.658;2023-04-07T05:57:01;100196.94;;;8.03;98.00
54854;BME280;40747;49.480;8.658;2023-04-07T05:59:27;100193.38;;;8.06;97.57
54854;BME280;40747;49.480;8.658;2023-04-07T06:01:52;100190.03;;;7.98;96.95
54854;BME280;40747;49.480;8.658;2023-04-07T06:04:18;100199.66;;;7.99;97.23
54854;BME280;40747;49.480;8.658;2023-04-07T06:06:43;100196.03;;;8.04;97.49
54854;BME280;40747;49.480;8.658;2023-04-07T06:09:08;100195.03;;;7.69;99.19
54854;BME280;40747;49.480;8.658;2023-04-07T06:11:33;100194.25;;;7.64;100.00
54854;BME280;40747;49.480;8.658;2023-04-07T06:13:59;100197.59;;;7.73;100.00
54854;BME280;40747;49.480;8.658;2023-04-07T06:16:24;100181.16;;;7.64;100.00
54854;BME280;40747;49.480;8.658;2023-04-07T06:18:49;100196.06;;;7.61;100.00
54854;BME280;40747;49.480;8.658;2023-04-07T06:21:15;100203.94;;;6.65;100.00
54854;BME280;40747;49.480;8.658;2023-04-07T06:23:40;100200.09;;;6.33;100.00
54854;BME280;40747;49.480;8.658;2023-04-07T06:26:09;100206.09;;;6.40;100.00
54854;BME280;40747;49.480;8.658;2023-04-07T06:28:35;100210.56;;;6.33;100.00
54854;BME280;40747;49.480;8.658;2023-04-07T06:31:00;100204.09;;;6.56;100.00
54854;BME280;40747;49.480;8.658;2023-04-07T06:33:25;100202.38;;;6.55;100.00
54854;BME280;40747;49.480;8.658;2023-04-07T06:35:52;100179.09;;;6.36;100.00
54854;BME280;40747;49.480;8.658;2023-04-07T06:38:17;100204.56;;;6.80;100.00
54854;BME280;40747;49.480;8.658;2023-04-07T06:40:43;100198.75;;;7.14;100.00
54854;BME280;40747;49.480;8.658;2023-04-07T06:43:08;100200.81;;;7.42;100.00
54854;BME280;40747;49.480;8.658;2023-04-07T06:45:33;100200.22;;;7.71;100.00
54854;BME280;40747;49.480;8.658;2023-04-07T06:47:58;100201.22;;;8.08;100.00
54854;BME280;40747;49.480;8.658;2023-04-07T06:50:24;100200.06;;;8.21;100.00
54854;BME280;40747;49.480;8.658;2023-04-07T06:52:49;100205.50;;;8.51;100.00
54854;BME280;40747;49.480;8.658;2023-04-07T06:55:15;100209.38;;;8.71;99.64
54854;BME280;40747;49.480;8.658;2023-04-07T06:57:40;100202.25;;;8.76;96.79
54854;BME280;40747;49.480;8.658;2023-04-07T07:00:06;100199.22;;;8.93;96.72
54854;BME280;40747;49.480;8.658;2023-04-07T07:02:32;100196.47;;;8.97;95.39
54854;BME280;40747;49.480;8.658;2023-04-07T07:04:57;100208.38;;;9.11;92.34
54854;BME280;40747;49.480;8.658;2023-04-07T07:07:23;100205.41;;;9.25;93.80
54854;BME280;40747;49.480;8.658;2023-04-07T07:09:50;100204.34;;;9.30;91.98
54854;BME280;40747;49.480;8.658;2023-04-07T07:12:15;100208.50;;;9.39;92.26
54854;BME280;40747;49.480;8.658;2023-04-07T07:14:42;100202.06;;;9.49;92.14
54854;BME280;40747;49.480;8.658;2023-04-07T07:17:07;100205.50;;;9.53;92.16
54854;BME280;40747;49.480;8.658;2023-04-07T07:19:32;100216.47;;;9.67;90.18
54854;BME280;40747;49.480;8.658;2023-04-07T07:21:58;100211.47;;;9.58;90.21
54854;BME280;40747;49.480;8.658;2023-04-07T07:24:23;100205.31;;;9.59;90.56
54854;BME280;40747;49.480;8.658;2023-04-07T07:26:48;100203.03;;;9.77;92.17
54854;BME280;40747;49.480;8.658;2023-04-07T07:29:14;100198.31;;;9.88;89.79
54854;BME280;40747;49.480;8.658;2023-04-07T07:31:39;100201.25;;;10.07;87.99
54854;BME280;40747;49.480;8.658;2023-04-07T07:34:05;100206.28;;;10.15;87.59
54854;BME280;40747;49.480;8.658;2023-04-07T07:36:30;100206.63;;;10.32;85.81
54854;BME280;40747;49.480;8.658;2023-04-07T07:38:56;100201.75;;;10.50;86.04
54854;BME280;40747;49.480;8.658;2023-04-07T07:41:21;100197.69;;;10.67;86.05
54854;BME280;40747;49.480;8.658;2023-04-07T07:43:47;100199.50;;;10.64;82.44
54854;BME280;40747;49.480;8.658;2023-04-07T07:46:12;100196.88;;;10.64;82.83
54854;BME280;40747;49.480;8.658;2023-04-07T07:48:37;100198.72;;;10.88;83.60
54854;BME280;40747;49.480;8.658;2023-04-07T07:51:03;100205.00;;;11.10;82.68
54854;BME280;40747;49.480;8.658;2023-04-07T07:53:29;100199.66;;;11.61;82.26
54854;BME280;40747;49.480;8.658;2023-04-07T07:55:54;100205.41;;;12.20;80.39
54854;BME280;40747;49.480;8.658;2023-04-07T07:58:20;100197.97;;;12.52;79.29
54854;BME280;40747;49.480;8.658;2023-04-07T08:00:48;100204.97;;;12.75;79.15
54854;BME280;40747;49.480;8.658;2023-04-07T08:03:15;100205.00;;;13.16;73.57
54854;BME280;40747;49.480;8.658;2023-04-07T08:05:40;100193.38;;;13.60;73.99
54854;BME280;40747;49.480;8.658;2023-04-07T08:08:06;100208.09;;;13.86;71.55
54854;BME280;40747;49.480;8.658;2023-04-07T08:10:32;100205.28;;;14.28;71.13
54854;BME280;40747;49.480;8.658;2023-04-07T08:12:57;100219.84;;;14.55;71.64
54854;BME280;40747;49.480;8.658;2023-04-07T08:15:23;100210.06;;;14.19;72.23
54854;BME280;40747;49.480;8.658;2023-04-07T08:17:48;100218.66;;;14.24;69.36
54854;BME280;40747;49.480;8.658;2023-04-07T08:20:13;100219.63;;;14.41;70.35
54854;BME280;40747;49.480;8.658;2023-04-07T08:22:40;100215.81;;;14.10;69.65
54854;BME280;40747;49.480;8.658;2023-04-07T08:25:07;100222.75;;;13.93;70.70
54854;BME280;40747;49.480;8.658;2023-04-07T08:27:32;100223.03;;;13.68;69.66
54854;BME280;40747;49.480;8.658;2023-04-07T08:29:59;100230.25;;;13.65;72.48
54854;BME280;40747;49.480;8.658;2023-04-07T08:32:33;100226.63;;;13.86;71.27
54854;BME280;40747;49.480;8.658;2023-04-07T08:34:58;100232.06;;;14.02;70.93
54854;BME280;40747;49.480;8.658;2023-04-07T08:37:23;100231.09;;;13.65;72.46
54854;BME280;40747;49.480;8.658;2023-04-07T08:39:49;100223.03;;;13.27;74.27
54854;BME280;40747;49.480;8.658;2023-04-07T08:42:15;100228.31;;;13.27;73.45
54854;BME280;40747;49.480;8.658;2023-04-07T08:44:46;100229.44;;;13.63;71.32
54854;BME280;40747;49.480;8.658;2023-04-07T08:47:13;100227.13;;;13.95;71.83
54854;BME280;40747;49.480;8.658;2023-04-07T08:49:43;100233.97;;;14.18;70.90
54854;BME280;40747;49.480;8.658;2023-04-07T08:52:10;100228.41;;;14.05;70.67
54854;BME280;40747;49.480;8.658;2023-04-07T08:54:37;100237.72;;;13.95;72.52
54854;BME280;40747;49.480;8.658;2023-04-07T08:57:02;100232.88;;;13.65;72.56
54854;BME280;40747;49.480;8.658;2023-04-07T08:59:29;100237.53;;;12.75;73.54
54854;BME280;40747;49.480;8.658;2023-04-07T09:01:58;100231.56;;;12.70;74.76
54854;BME280;40747;49.480;8.658;2023-04-07T09:04:23;100240.00;;;12.58;74.38
54854;BME280;40747;49.480;8.658;2023-04-07T09:06:49;100242.66;;;12.80;74.16
54854;BME280;40747;49.480;8.658;2023-04-07T09:09:14;100237.50;;;12.98;74.28
54854;BME280;40747;49.480;8.658;2023-04-07T09:11:40;100253.13;;;13.45;73.38
54854;BME280;40747;49.480;8.658;2023-04-07T09:14:05;100245.91;;;13.69;73.19
54854;BME280;40747;49.480;8.658;2023-04-07T09:16:31;100242.38;;;14.08;72.28
54854;BME280;40747;49.480;8.658;2023-04-07T09:18:57;100249.66;;;14.22;70.95
54854;BME280;40747;49.480;8.658;2023-04-07T09:21:22;100234.25;;;14.31;70.85
54854;BME280;40747;49.480;8.658;2023-04-07T09:23:48;100221.38;;;14.23;70.57
54854;BME280;40747;49.480;8.658;2023-04-07T09:26:24;100251.00;;;14.69;69.71
54854;BME280;40747;49.480;8.658;2023-04-07T09:28:56;100239.47;;;14.88;68.13
54854;BME280;40747;49.480;8.658;2023-04-07T09:31:22;100239.44;;;14.34;70.60
54854;BME280;40747;49.480;8.658;2023-04-07T09:33:50;100238.91;;;14.06;70.62
54854;BME280;40747;49.480;8.658;2023-04-07T09:36:16;100247.50;;;14.31;69.38
54854;BME280;40747;49.480;8.658;2023-04-07T09:38:42;100245.22;;;14.42;69.35
54854;BME280;40747;49.480;8.658;2023-04-07T09:43:40;100249.38;;;14.67;69.39
54854;BME280;40747;49.480;8.658;2023-04-07T09:46:07;100247.13;;;14.57;68.76
54854;BME280;40747;49.480;8.658;2023-04-07T09:48:33;100239.41;;;14.72;68.13
54854;BME280;40747;49.480;8.658;2023-04-07T09:51:06;100239.16;;;14.57;68.47
54854;BME280;40747;49.480;8.658;2023-04-07T09:53:46;100241.03;;;14.74;68.35
54854;BME280;40747;49.480;8.658;2023-04-07T09:56:13;100250.88;;;14.15;69.07
54854;BME280;40747;49.480;8.658;2023-04-07T09:58:40;100250.38;;;14.07;69.57
54854;BME280;40747;49.480;8.658;2023-04-07T10:01:08;100246.56;;;13.74;71.35
54854;BME280;40747;49.480;8.658;2023-04-07T10:03:35;100244.91;;;12.89;74.20
54854;BME280;40747;49.480;8.658;2023-04-07T10:06:01;100258.47;;;13.02;76.02
54854;BME280;40747;49.480;8.658;2023-04-07T10:08:28;100239.53;;;13.54;73.45
54854;BME280;40747;49.480;8.658;2023-04-07T10:10:54;100244.72;;;14.15;72.90
54854;BME280;40747;49.480;8.658;2023-04-07T10:13:21;100242.00;;;14.16;70.90
54854;BME280;40747;49.480;8.658;2023-04-07T10:15:48;100244.34;;;14.41;69.98
54854;BME280;40747;49.480;8.658;2023-04-07T10:18:14;100244.41;;;14.96;67.06
54854;BME280;40747;49.480;8.658;2023-04-07T10:20:42;100240.66;;;14.82;66.54
54854;BME280;40747;49.480;8.658;2023-04-07T10:23:16;100241.66;;;14.24;67.49
54854;BME280;40747;49.480;8.658;2023-04-07T10:25:44;100243.84;;;15.24;69.66
54854;BME280;40747;49.480;8.658;2023-04-07T10:28:10;100240.78;;;16.16;65.07
54854;BME280;40747;49.480;8.658;2023-04-07T10:30:37;100220.53;;;15.98;64.07
54854;BME280;40747;49.480;8.658;2023-04-07T10:33:03;100237.16;;;15.17;64.59
54854;BME280;40747;49.480;8.658;2023-04-07T10:38:30;100238.53;;;15.75;63.87
54854;BME280;40747;49.480;8.658;2023-04-07T10:40:55;100213.28;;;15.68;64.81
54854;BME280;40747;49.480;8.658;2023-04-07T10:43:40;100238.50;;;15.59;65.78
54854;BME280;40747;49.480;8.658;2023-04-07T10:46:06;100239.56;;;15.90;64.64
54854;BME280;40747;49.480;8.658;2023-04-07T10:48:32;100234.16;;;15.40;65.17
54854;BME280;40747;49.480;8.658;2023-04-07T10:53:29;100239.03;;;15.15;67.76
54854;BME280;40747;49.480;8.658;2023-04-07T10:55:56;100241.97;;;14.91;70.70
54854;BME280;40747;49.480;8.658;2023-04-07T10:58:31;100241.97;;;14.91;73.56
54854;BME280;40747;49.480;8.658;2023-04-07T11:03:34;100251.13;;;14.11;74.84
54854;BME280;40747;49.480;8.658;2023-04-07T11:06:03;100251.09;;;13.91;75.72
54854;BME280;40747;49.480;8.658;2023-04-07T11:08:34;100247.66;;;14.08;76.58
54854;BME280;40747;49.480;8.658;2023-04-07T11:11:00;100239.88;;;14.05;77.45
54854;BME280;40747;49.480;8.658;2023-04-07T11:13:26;100254.53;;;14.13;74.50
54854;BME280;40747;49.480;8.658;2023-04-07T11:15:51;100254.53;;;13.93;76.34
54854;BME280;40747;49.480;8.658;2023-04-07T11:18:19;100250.06;;;13.75;76.84
54854;BME280;40747;49.480;8.658;2023-04-07T11:20:56;100251.50;;;14.01;78.01
54854;BME280;40747;49.480;8.658;2023-04-07T11:23:23;100251.22;;;13.88;77.76
54854;BME280;40747;49.480;8.658;2023-04-07T11:25:59;100254.03;;;13.23;76.44
54854;BME280;40747;49.480;8.658;2023-04-07T11:28:28;100264.63;;;13.23;76.79
54854;BME280;40747;49.480;8.658;2023-04-07T11:30:55;100259.41;;;13.42;76.03
54854;BME280;40747;49.480;8.658;2023-04-07T11:33:22;100260.41;;;13.81;77.34
54854;BME280;40747;49.480;8.658;2023-04-07T11:35:56;100262.53;;;13.92;76.38
54854;BME280;40747;49.480;8.658;2023-04-07T11:38:24;100260.59;;;13.76;76.45
54854;BME280;40747;49.480;8.658;2023-04-07T11:40:49;100265.91;;;13.35;76.81
54854;BME280;40747;49.480;8.658;2023-04-07T11:43:17;100270.53;;;13.30;76.72
54854;BME280;40747;49.480;8.658;2023-04-07T11:45:43;100271.69;;;13.23;77.71
54854;BME280;40747;49.480;8.658;2023-04-07T11:48:29;100272.63;;;13.22;76.75
54854;BME280;40747;49.480;8.658;2023-04-07T11:50:54;100275.00;;;13.28;75.66
54854;BME280;40747;49.480;8.658;2023-04-07T11:53:26;100278.94;;;12.97;75.22
54854;BME280;40747;49.480;8.658;2023-04-07T11:56:03;100277.34;;;12.71;75.94
54854;BME280;40747;49.480;8.658;2023-04-07T11:58:30;100272.19;;;12.00;78.65
54854;BME280;40747;49.480;8.658;2023-04-07T12:00:57;100276.47;;;12.26;79.83
54854;BME280;40747;49.480;8.658;2023-04-07T12:03:22;100265.91;;;12.26;79.03
54854;BME280;40747;49.480;8.658;2023-04-07T12:05:48;100249.47;;;11.94;79.66
54854;BME280;40747;49.480;8.658;2023-04-07T12:08:14;100262.28;;;12.28;80.61
54854;BME280;40747;49.480;8.658;2023-04-07T12:10:41;100274.41;;;12.34;80.22
54854;BME280;40747;49.480;8.658;2023-04-07T12:13:07;100273.06;;;12.46;78.24
54854;BME280;40747;49.480;8.658;2023-04-07T12:15:34;100280.56;;;12.79;78.94
54854;BME280;40747;49.480;8.658;2023-04-07T12:17:59;100272.16;;;13.12;78.27
54854;BME280;40747;49.480;8.658;2023-04-07T12:20:25;100261.38;;;13.39;76.89
54854;BME280;40747;49.480;8.658;2023-04-07T12:22:51;100271.34;;;12.89;76.31
54854;BME280;40747;49.480;8.658;2023-04-07T12:25:16;100274.06;;;13.08;77.02
54854;BME280;40747;49.480;8.658;2023-04-07T12:27:42;100277.81;;;14.06;74.52
54854;BME280;40747;49.480;8.658;2023-04-07T12:30:07;100275.28;;;14.41;75.24
54854;BME280;40747;49.480;8.658;2023-04-07T12:32:33;100277.97;;;13.82;76.27
54854;BME280;40747;49.480;8.658;2023-04-07T12:34:59;100283.41;;;13.79;76.40
54854;BME280;40747;49.480;8.658;2023-04-07T12:37:25;100279.09;;;13.37;78.96
54854;BME280;40747;49.480;8.658;2023-04-07T12:39:50;100294.88;;;13.38;77.61
54854;BME280;40747;49.480;8.658;2023-04-07T12:42:15;100291.47;;;13.35;77.97
54854;BME280;40747;49.480;8.658;2023-04-07T12:44:41;100283.50;;;13.36;77.26
54854;BME280;40747;49.480;8.658;2023-04-07T12:47:06;100283.50;;;13.36;78.36
54854;BME280;40747;49.480;8.658;2023-04-07T12:49:32;100294.25;;;13.32;78.65
54854;BME280;40747;49.480;8.658;2023-04-07T12:51:57;100291.47;;;13.35;78.88
54854;BME280;40747;49.480;8.658;2023-04-07T12:54:23;100283.09;;;12.60;81.60
54854;BME280;40747;49.480;8.658;2023-04-07T12:56:49;100295.47;;;12.36;83.33
54854;BME280;40747;49.480;8.658;2023-04-07T12:59:14;100294.78;;;12.31;83.48
54854;BME280;40747;49.480;8.658;2023-04-07T13:01:40;100298.94;;;12.14;84.30
54854;BME280;40747;49.480;8.658;2023-04-07T13:04:05;100290.22;;;11.87;84.56
54854;BME280;40747;49.480;8.658;2023-04-07T13:06:30;100295.88;;;12.01;85.13
54854;BME280;40747;49.480;8.658;2023-04-07T13:08:56;100305.97;;;12.37;82.99